sensor_id;sensor_type;location;lat;lon;timestamp;P1;durP1;ratioP1;P2;durP2;ratioP2
54458;SDS011;40368;49.350;8.152;2023-12-14T00:00:58;29;;;63;;
54458;SDS011;40368;49.350;8.152;2023-12-14T00:01:58;25;;;52;;
54458;SDS011;40368;49.350;8.152;2023-12-14T00:02:58;25;;;68;;
54458;SDS011;40368;49.350;8.152;2023-12-14T00:03:59;28;;;59;;
54458;SDS011;40368;49.350;8.152;2023-12-14T00:04:58;25;;;44;;
54458;SDS011;40368;49.350;8.152;2023-12-14T00:05:58;29;;;72;;
54458;SDS011;40368;49.350;8.152;2023-12-14T00:06:58;30;;;63;;
54458;SDS011;40368;49.350;8.152;2023-12-14T00:07:58;31;;;59;;
54458;SDS011;40368;49.350;8.152;2023-12-14T00:08:58;28;;;68;;
54458;SDS011;40368;49.350;8.152;2023-12-14T00:09:58;27;;;60;;
54458;SDS011;40368;49.350;8.152;2023-12-14T00:11:02;28;;;49;;
54458;SDS011;40368;49.350;8.152;2023-12-14T00:11:58;27;;;54;;
54458;SDS011;40368;49.350;8.152;2023-12-14T00:12:58;23;;;54;;
54458;SDS011;40368;49.350;8.152;2023-12-14T00:13:58;29;;;57;;
54458;SDS011;40368;49.350;8.152;2023-12-14T00:14:58;22;;;50;;
54458;SDS011;40368;49.350;8.152;2023-12-14T00:15:59;25;;;64;;
54458;SDS011;40368;49.350;8.152;2023-12-14T00:16:58;22;;;48;;
54458;SDS011;40368;49.350;8.152;2023-12-14T00:17:58;26;;;61;;
54458;SDS011;40368;49.350;8.152;2023-12-14T00:18:58;21;;;51;;
54458;SDS011;40368;49.350;8.152;2023-12-14T00:19:58;25;;;55;;
54458;SDS011;40368;49.350;8.152;2023-12-14T00:20:58;24;;;52;;
54458;SDS011;40368;49.350;8.152;2023-12-14T00:21:59;23;;;50;;
54458;SDS011;40368;49.350;8.152;2023-12-14T00:22:58;21;;;38;;
54458;SDS011;40368;49.350;8.152;2023-12-14T00:23:58;21;;;44;;
54458;SDS011;40368;49.350;8.152;2023-12-14T00:24:59;25;;;53;;
54458;SDS011;40368;49.350;8.152;2023-12-14T00:25:58;24;;;52;;
54458;SDS011;40368;49.350;8.152;2023-12-14T00:26:59;18;;;33;;
54458;SDS011;40368;49.350;8.152;2023-12-14T00:27:58;24;;;56;;
54458;SDS011;40368;49.350;8.152;2023-12-14T00:28:58;22;;;53;;
54458;SDS011;40368;49.350;8.152;2023-12-14T00:29:58;22;;;42;;
54458;SDS011;40368;49.350;8.152;2023-12-14T00:30:58;24;;;41;;
54458;SDS011;40368;49.350;8.152;2023-12-14T00:31:59;23;;;50;;
54458;SDS011;40368;49.350;8.152;2023-12-14T00:32:58;23;;;52;;
54458;SDS011;40368;49.350;8.152;2023-12-14T00:33:58;25;;;71;;
54458;SDS011;40368;49.350;8.152;2023-12-14T00:34:58;27;;;65;;
54458;SDS011;40368;49.350;8.152;2023-12-14T00:35:58;22;;;61;;
54458;SDS011;40368;49.350;8.152;2023-12-14T00:36:58;26;;;74;;
54458;SDS011;40368;49.350;8.152;2023-12-14T00:37:59;21;;;54;;
54458;SDS011;40368;49.350;8.152;2023-12-14T00:38:58;30;;;71;;
54458;SDS011;40368;49.350;8.152;2023-12-14T00:39:58;24;;;42;;
54458;SDS011;40368;49.350;8.152;2023-12-14T00:40:58;27;;;57;;
54458;SDS011;40368;49.350;8.152;2023-12-14T00:41:58;21;;;48;;
54458;SDS011;40368;49.350;8.152;2023-12-14T00:42:59;29;;;47;;
54458;SDS011;40368;49.350;8.152;2023-12-14T00:43:58;24;;;53;;
54458;SDS011;40368;49.350;8.152;2023-12-14T00:44:58;25;;;53;;
54458;SDS011;40368;49.350;8.152;2023-12-14T00:45:58;28;;;53;;
54458;SDS011;40368;49.350;8.152;2023-12-14T00:46:58;22;;;43;;
54458;SDS011;40368;49.350;8.152;2023-12-14T00:47:58;27;;;52;;
54458;SDS011;40368;49.350;8.152;2023-12-14T00:48:58;25;;;56;;
54458;SDS011;40368;49.350;8.152;2023-12-14T00:49:58;28;;;58;;
54458;SDS011;40368;49.350;8.152;2023-12-14T00:50:58;24;;;51;;
54458;SDS011;40368;49.350;8.152;2023-12-14T00:51:58;24;;;65;;
54458;SDS011;40368;49.350;8.152;2023-12-14T00:52:58;25;;;51;;
54458;SDS011;40368;49.350;8.152;2023-12-14T00:53:58;27;;;54;;
54458;SDS011;40368;49.350;8.152;2023-12-14T00:54:58;28;;;70;;
54458;SDS011;40368;49.350;8.152;2023-12-14T00:55:58;27;;;68;;
54458;SDS011;40368;49.350;8.152;2023-12-14T00:56:58;29;;;57;;
54458;SDS011;40368;49.350;8.152;2023-12-14T00:57:58;26;;;55;;
54458;SDS011;40368;49.350;8.152;2023-12-14T00:58:58;31;;;59;;
54458;SDS011;40368;49.350;8.152;2023-12-14T00:59:58;25;;;53;;
54458;SDS011;40368;49.350;8.152;2023-12-14T01:00:58;35;;;70;;
54458;SDS011;40368;49.350;8.152;2023-12-14T01:01:59;27;;;45;;
54458;SDS011;40368;49.350;8.152;2023-12-14T01:02:58;27;;;40;;
54458;SDS011;40368;49.350;8.152;2023-12-14T01:03:58;31;;;79;;
54458;SDS011;40368;49.350;8.152;2023-12-14T01:04:58;25;;;45;;
54458;SDS011;40368;49.350;8.152;2023-12-14T01:05:58;31;;;72;;
54458;SDS011;40368;49.350;8.152;2023-12-14T01:06:58;31;;;54;;
54458;SDS011;40368;49.350;8.152;2023-12-14T01:07:59;25;;;43;;
54458;SDS011;40368;49.350;8.152;2023-12-14T01:08:59;27;;;51;;
54458;SDS011;40368;49.350;8.152;2023-12-14T01:09:58;23;;;48;;
54458;SDS011;40368;49.350;8.152;2023-12-14T01:10:58;26;;;49;;
54458;SDS011;40368;49.350;8.152;2023-12-14T01:11:58;31;;;67;;
54458;SDS011;40368;49.350;8.152;2023-12-14T01:12:58;21;;;36;;
54458;SDS011;40368;49.350;8.152;2023-12-14T01:13:59;26;;;50;;
54458;SDS011;40368;49.350;8.152;2023-12-14T01:14:58;23;;;38;;
54458;SDS011;40368;49.350;8.152;2023-12-14T01:15:58;25;;;45;;
54458;SDS011;40368;49.350;8.152;2023-12-14T01:16:58;25;;;55;;
54458;SDS011;40368;49.350;8.152;2023-12-14T01:17:58;24;;;50;;
54458;SDS011;40368;49.350;8.152;2023-12-14T01:18:58;25;;;56;;
54458;SDS011;40368;49.350;8.152;2023-12-14T01:19:58;23;;;42;;
54458;SDS011;40368;49.350;8.152;2023-12-14T01:20:58;22;;;48;;
54458;SDS011;40368;49.350;8.152;2023-12-14T01:21:58;24;;;47;;
54458;SDS011;40368;49.350;8.152;2023-12-14T01:22:58;22;;;50;;
54458;SDS011;40368;49.350;8.152;2023-12-14T01:23:59;23;;;43;;
54458;SDS011;40368;49.350;8.152;2023-12-14T01:24:59;24;;;55;;
54458;SDS011;40368;49.350;8.152;2023-12-14T01:25:58;25;;;44;;
54458;SDS011;40368;49.350;8.152;2023-12-14T01:26:58;29;;;54;;
54458;SDS011;40368;49.350;8.152;2023-12-14T01:27:58;27;;;58;;
54458;SDS011;40368;49.350;8.152;2023-12-14T01:28:58;22;;;39;;
54458;SDS011;40368;49.350;8.152;2023-12-14T01:29:58;24;;;41;;
54458;SDS011;40368;49.350;8.152;2023-12-14T01:30:58;29;;;70;;
54458;SDS011;40368;49.350;8.152;2023-12-14T01:31:59;23;;;37;;
54458;SDS011;40368;49.350;8.152;2023-12-14T01:32:59;26;;;49;;
54458;SDS011;40368;49.350;8.152;2023-12-14T01:33:58;27;;;47;;
54458;SDS011;40368;49.350;8.152;2023-12-14T01:34:58;23;;;50;;
54458;SDS011;40368;49.350;8.152;2023-12-14T01:35:58;23;;;45;;
54458;SDS011;40368;49.350;8.152;2023-12-14T01:36:58;25;;;57;;
54458;SDS011;40368;49.350;8.152;2023-12-14T01:37:59;21;;;48;;
54458;SDS011;40368;49.350;8.152;2023-12-14T01:38:58;25;;;42;;
54458;SDS011;40368;49.350;8.152;2023-12-14T01:39:58;24;;;45;;
54458;SDS011;40368;49.350;8.152;2023-12-14T01:40:58;24;;;51;;
54458;SDS011;40368;49.350;8.152;2023-12-14T01:41:58;21;;;35;;
54458;SDS011;40368;49.350;8.152;2023-12-14T01:43:06;25;;;52;;
54458;SDS011;40368;49.350;8.152;2023-12-14T01:43:59;26;;;55;;
54458;SDS011;40368;49.350;8.152;2023-12-14T01:44:58;24;;;53;;
54458;SDS011;40368;49.350;8.152;2023-12-14T01:45:58;27;;;47;;
54458;SDS011;40368;49.350;8.152;2023-12-14T01:47:58;26;;;52;;
54458;SDS011;40368;49.350;8.152;2023-12-14T01:48:58;26;;;41;;
54458;SDS011;40368;49.350;8.152;2023-12-14T01:49:58;27;;;58;;
54458;SDS011;40368;49.350;8.152;2023-12-14T01:50:58;28;;;54;;
54458;SDS011;40368;49.350;8.152;2023-12-14T01:51:58;28;;;57;;
54458;SDS011;40368;49.350;8.152;2023-12-14T01:52:58;25;;;49;;
54458;SDS011;40368;49.350;8.152;2023-12-14T01:53:59;28;;;60;;
54458;SDS011;40368;49.350;8.152;2023-12-14T01:54:58;30;;;51;;
54458;SDS011;40368;49.350;8.152;2023-12-14T01:55:58;26;;;42;;
54458;SDS011;40368;49.350;8.152;2023-12-14T01:56:58;29;;;53;;
54458;SDS011;40368;49.350;8.152;2023-12-14T01:57:58;29;;;49;;
54458;SDS011;40368;49.350;8.152;2023-12-14T01:58:59;30;;;60;;
54458;SDS011;40368;49.350;8.152;2023-12-14T01:59:58;31;;;56;;
54458;SDS011;40368;49.350;8.152;2023-12-14T02:01:00;36;;;62;;
54458;SDS011;40368;49.350;8.152;2023-12-14T02:01:58;25;;;57;;
54458;SDS011;40368;49.350;8.152;2023-12-14T02:02:58;32;;;54;;
54458;SDS011;40368;49.350;8.152;2023-12-14T02:03:58;28;;;46;;
54458;SDS011;40368;49.350;8.152;2023-12-14T02:04:58;29;;;51;;
54458;SDS011;40368;49.350;8.152;2023-12-14T02:05:58;31;;;58;;
54458;SDS011;40368;49.350;8.152;2023-12-14T02:06:58;29;;;62;;
54458;SDS011;40368;49.350;8.152;2023-12-14T02:07:58;33;;;92;;
54458;SDS011;40368;49.350;8.152;2023-12-14T02:08:58;30;;;50;;
54458;SDS011;40368;49.350;8.152;2023-12-14T02:09:58;32;;;85;;
54458;SDS011;40368;49.350;8.152;2023-12-14T02:10:58;27;;;50;;
54458;SDS011;40368;49.350;8.152;2023-12-14T02:11:58;33;;;66;;
54458;SDS011;40368;49.350;8.152;2023-12-14T02:13:00;33;;;63;;
54458;SDS011;40368;49.350;8.152;2023-12-14T02:14:02;29;;;53;;
54458;SDS011;40368;49.350;8.152;2023-12-14T02:14:59;32;;;45;;
54458;SDS011;40368;49.350;8.152;2023-12-14T02:15:58;32;;;57;;
54458;SDS011;40368;49.350;8.152;2023-12-14T02:16:58;30;;;55;;
54458;SDS011;40368;49.350;8.152;2023-12-14T02:17:58;21;;;33;;
54458;SDS011;40368;49.350;8.152;2023-12-14T02:18:58;25;;;64;;
54458;SDS011;40368;49.350;8.152;2023-12-14T02:19:58;28;;;47;;
54458;SDS011;40368;49.350;8.152;2023-12-14T02:20:58;36;;;72;;
54458;SDS011;40368;49.350;8.152;2023-12-14T02:21:58;31;;;53;;
54458;SDS011;40368;49.350;8.152;2023-12-14T02:22:59;34;;;70;;
54458;SDS011;40368;49.350;8.152;2023-12-14T02:23:58;34;;;76;;
54458;SDS011;40368;49.350;8.152;2023-12-14T02:24:59;31;;;55;;
54458;SDS011;40368;49.350;8.152;2023-12-14T02:25:58;35;;;75;;
54458;SDS011;40368;49.350;8.152;2023-12-14T02:26:59;31;;;58;;
54458;SDS011;40368;49.350;8.152;2023-12-14T02:27:58;35;;;59;;
54458;SDS011;40368;49.350;8.152;2023-12-14T02:28:59;37;;;69;;
54458;SDS011;40368;49.350;8.152;2023-12-14T02:29:58;29;;;65;;
54458;SDS011;40368;49.350;8.152;2023-12-14T02:30:58;41;;;78;;
54458;SDS011;40368;49.350;8.152;2023-12-14T02:31:59;29;;;50;;
54458;SDS011;40368;49.350;8.152;2023-12-14T02:32:58;31;;;63;;
54458;SDS011;40368;49.350;8.152;2023-12-14T02:33:58;27;;;73;;
54458;SDS011;40368;49.350;8.152;2023-12-14T02:34:59;35;;;81;;
54458;SDS011;40368;49.350;8.152;2023-12-14T02:35:58;31;;;71;;
54458;SDS011;40368;49.350;8.152;2023-12-14T02:36:58;32;;;51;;
54458;SDS011;40368;49.350;8.152;2023-12-14T02:37:58;31;;;62;;
54458;SDS011;40368;49.350;8.152;2023-12-14T02:38:58;41;;;70;;
54458;SDS011;40368;49.350;8.152;2023-12-14T02:39:58;33;;;65;;
54458;SDS011;40368;49.350;8.152;2023-12-14T02:40:58;30;;;57;;
54458;SDS011;40368;49.350;8.152;2023-12-14T02:41:58;28;;;57;;
54458;SDS011;40368;49.350;8.152;2023-12-14T02:42:58;35;;;81;;
54458;SDS011;40368;49.350;8.152;2023-12-14T02:43:59;27;;;51;;
54458;SDS011;40368;49.350;8.152;2023-12-14T02:44:59;44;;;76;;
54458;SDS011;40368;49.350;8.152;2023-12-14T02:45:58;32;;;71;;
54458;SDS011;40368;49.350;8.152;2023-12-14T02:46:58;31;;;64;;
54458;SDS011;40368;49.350;8.152;2023-12-14T02:47:58;37;;;61;;
54458;SDS011;40368;49.350;8.152;2023-12-14T02:48:58;28;;;67;;
54458;SDS011;40368;49.350;8.152;2023-12-14T02:49:58;28;;;58;;
54458;SDS011;40368;49.350;8.152;2023-12-14T02:50:59;35;;;64;;
54458;SDS011;40368;49.350;8.152;2023-12-14T02:51:58;36;;;65;;
54458;SDS011;40368;49.350;8.152;2023-12-14T02:52:58;28;;;50;;
54458;SDS011;40368;49.350;8.152;2023-12-14T02:53:59;45;;;66;;
54458;SDS011;40368;49.350;8.152;2023-12-14T02:54:58;27;;;43;;
54458;SDS011;40368;49.350;8.152;2023-12-14T02:56:00;31;;;69;;
54458;SDS011;40368;49.350;8.152;2023-12-14T02:56:58;32;;;59;;
54458;SDS011;40368;49.350;8.152;2023-12-14T02:57:58;36;;;67;;
54458;SDS011;40368;49.350;8.152;2023-12-14T02:58:59;30;;;69;;
54458;SDS011;40368;49.350;8.152;2023-12-14T02:59:58;32;;;67;;
54458;SDS011;40368;49.350;8.152;2023-12-14T03:00:58;29;;;48;;
54458;SDS011;40368;49.350;8.152;2023-12-14T03:01:58;33;;;55;;
54458;SDS011;40368;49.350;8.152;2023-12-14T03:02:58;35;;;61;;
54458;SDS011;40368;49.350;8.152;2023-12-14T03:03:58;31;;;56;;
54458;SDS011;40368;49.350;8.152;2023-12-14T03:04:58;35;;;63;;
54458;SDS011;40368;49.350;8.152;2023-12-14T03:06:58;37;;;60;;
54458;SDS011;40368;49.350;8.152;2023-12-14T03:07:58;26;;;52;;
54458;SDS011;40368;49.350;8.152;2023-12-14T03:08:59;31;;;60;;
54458;SDS011;40368;49.350;8.152;2023-12-14T03:09:58;35;;;68;;
54458;SDS011;40368;49.350;8.152;2023-12-14T03:10:58;35;;;62;;
54458;SDS011;40368;49.350;8.152;2023-12-14T03:11:58;31;;;70;;
54458;SDS011;40368;49.350;8.152;2023-12-14T03:12:58;39;;;73;;
54458;SDS011;40368;49.350;8.152;2023-12-14T03:13:59;32;;;65;;
54458;SDS011;40368;49.350;8.152;2023-12-14T03:14:58;42;;;95;;
54458;SDS011;40368;49.350;8.152;2023-12-14T03:15:59;29;;;64;;
54458;SDS011;40368;49.350;8.152;2023-12-14T03:16:58;29;;;52;;
54458;SDS011;40368;49.350;8.152;2023-12-14T03:17:58;37;;;66;;
54458;SDS011;40368;49.350;8.152;2023-12-14T03:18:59;35;;;60;;
54458;SDS011;40368;49.350;8.152;2023-12-14T03:19:58;36;;;55;;
54458;SDS011;40368;49.350;8.152;2023-12-14T03:20:58;34;;;55;;
54458;SDS011;40368;49.350;8.152;2023-12-14T03:21:58;39;;;65;;
54458;SDS011;40368;49.350;8.152;2023-12-14T03:22:58;43;;;72;;
54458;SDS011;40368;49.350;8.152;2023-12-14T03:23:59;33;;;92;;
54458;SDS011;40368;49.350;8.152;2023-12-14T03:24:58;34;;;71;;
54458;SDS011;40368;49.350;8.152;2023-12-14T03:25:58;35;;;58;;
54458;SDS011;40368;49.350;8.152;2023-12-14T03:26:59;39;;;70;;
54458;SDS011;40368;49.350;8.152;2023-12-14T03:27:58;35;;;66;;
54458;SDS011;40368;49.350;8.152;2023-12-14T03:28:58;47;;;72;;
54458;SDS011;40368;49.350;8.152;2023-12-14T03:29:59;38;;;78;;
54458;SDS011;40368;49.350;8.152;2023-12-14T03:30:58;35;;;74;;
54458;SDS011;40368;49.350;8.152;2023-12-14T03:31:58;40;;;63;;
54458;SDS011;40368;49.350;8.152;2023-12-14T03:32:58;41;;;84;;
54458;SDS011;40368;49.350;8.152;2023-12-14T03:33:58;35;;;71;;
54458;SDS011;40368;49.350;8.152;2023-12-14T03:34:58;45;;;84;;
54458;SDS011;40368;49.350;8.152;2023-12-14T03:35:58;38;;;81;;
54458;SDS011;40368;49.350;8.152;2023-12-14T03:36:58;40;;;86;;
54458;SDS011;40368;49.350;8.152;2023-12-14T03:37:59;40;;;70;;
54458;SDS011;40368;49.350;8.152;2023-12-14T03:38:58;47;;;93;;
54458;SDS011;40368;49.350;8.152;2023-12-14T03:39:58;43;;;82;;
54458;SDS011;40368;49.350;8.152;2023-12-14T03:40:58;37;;;72;;
54458;SDS011;40368;49.350;8.152;2023-12-14T03:41:58;43;;;80;;
54458;SDS011;40368;49.350;8.152;2023-12-14T03:42:58;37;;;71;;
54458;SDS011;40368;49.350;8.152;2023-12-14T03:43:58;51;;;95;;
54458;SDS011;40368;49.350;8.152;2023-12-14T03:44:58;18;;;25;;
54458;SDS011;40368;49.350;8.152;2023-12-14T03:45:58;32;;;59;;
54458;SDS011;40368;49.350;8.152;2023-12-14T03:46:58;38;;;62;;
54458;SDS011;40368;49.350;8.152;2023-12-14T03:47:58;40;;;86;;
54458;SDS011;40368;49.350;8.152;2023-12-14T03:48:58;40;;;77;;
54458;SDS011;40368;49.350;8.152;2023-12-14T03:49:58;41;;;91;;
54458;SDS011;40368;49.350;8.152;2023-12-14T03:51:01;43;;;85;;
54458;SDS011;40368;49.350;8.152;2023-12-14T03:51:58;43;;;73;;
54458;SDS011;40368;49.350;8.152;2023-12-14T03:52:58;54;;;115;;
54458;SDS011;40368;49.350;8.152;2023-12-14T03:53:58;38;;;64;;
54458;SDS011;40368;49.350;8.152;2023-12-14T03:54:58;34;;;60;;
54458;SDS011;40368;49.350;8.152;2023-12-14T03:55:58;45;;;91;;
54458;SDS011;40368;49.350;8.152;2023-12-14T03:56:58;42;;;75;;
54458;SDS011;40368;49.350;8.152;2023-12-14T03:57:58;49;;;78;;
54458;SDS011;40368;49.350;8.152;2023-12-14T03:58:58;43;;;97;;
54458;SDS011;40368;49.350;8.152;2023-12-14T03:59:58;59;;;101;;
54458;SDS011;40368;49.350;8.152;2023-12-14T04:00:58;45;;;89;;
54458;SDS011;40368;49.350;8.152;2023-12-14T04:01:58;52;;;93;;
54458;SDS011;40368;49.350;8.152;2023-12-14T04:02:58;51;;;84;;
54458;SDS011;40368;49.350;8.152;2023-12-14T04:03:58;57;;;84;;
54458;SDS011;40368;49.350;8.152;2023-12-14T04:04:58;47;;;86;;
54458;SDS011;40368;49.350;8.152;2023-12-14T04:05:58;64;;;121;;
54458;SDS011;40368;49.350;8.152;2023-12-14T04:06:58;48;;;92;;
54458;SDS011;40368;49.350;8.152;2023-12-14T04:07:58;48;;;105;;
54458;SDS011;40368;49.350;8.152;2023-12-14T04:08:58;45;;;106;;
54458;SDS011;40368;49.350;8.152;2023-12-14T04:09:58;46;;;103;;
54458;SDS011;40368;49.350;8.152;2023-12-14T04:10:59;50;;;91;;
54458;SDS011;40368;49.350;8.152;2023-12-14T04:11:59;46;;;83;;
54458;SDS011;40368;49.350;8.152;2023-12-14T04:12:58;51;;;89;;
54458;SDS011;40368;49.350;8.152;2023-12-14T04:13:58;46;;;89;;
54458;SDS011;40368;49.350;8.152;2023-12-14T04:14:58;54;;;105;;
54458;SDS011;40368;49.350;8.152;2023-12-14T04:15:59;44;;;79;;
54458;SDS011;40368;49.350;8.152;2023-12-14T04:16:59;63;;;115;;
54458;SDS011;40368;49.350;8.152;2023-12-14T04:17:59;51;;;99;;
54458;SDS011;40368;49.350;8.152;2023-12-14T04:18:58;51;;;137;;
54458;SDS011;40368;49.350;8.152;2023-12-14T04:19:59;50;;;104;;
54458;SDS011;40368;49.350;8.152;2023-12-14T04:20:59;48;;;87;;
54458;SDS011;40368;49.350;8.152;2023-12-14T04:21:58;48;;;102;;
54458;SDS011;40368;49.350;8.152;2023-12-14T04:22:58;39;;;82;;
54458;SDS011;40368;49.350;8.152;2023-12-14T04:23:59;48;;;92;;
54458;SDS011;40368;49.350;8.152;2023-12-14T04:24:58;39;;;83;;
54458;SDS011;40368;49.350;8.152;2023-12-14T04:25:58;51;;;84;;
54458;SDS011;40368;49.350;8.152;2023-12-14T04:26:58;36;;;151;;
54458;SDS011;40368;49.350;8.152;2023-12-14T04:27:59;51;;;97;;
54458;SDS011;40368;49.350;8.152;2023-12-14T04:28:58;39;;;93;;
54458;SDS011;40368;49.350;8.152;2023-12-14T04:29:59;42;;;80;;
54458;SDS011;40368;49.350;8.152;2023-12-14T04:30:58;45;;;77;;
54458;SDS011;40368;49.350;8.152;2023-12-14T04:31:58;40;;;79;;
54458;SDS011;40368;49.350;8.152;2023-12-14T04:32:59;37;;;65;;
54458;SDS011;40368;49.350;8.152;2023-12-14T04:33:58;47;;;91;;
54458;SDS011;40368;49.350;8.152;2023-12-14T04:34:58;36;;;72;;
54458;SDS011;40368;49.350;8.152;2023-12-14T04:35:58;41;;;65;;
54458;SDS011;40368;49.350;8.152;2023-12-14T04:36:59;34;;;62;;
54458;SDS011;40368;49.350;8.152;2023-12-14T04:37:58;49;;;86;;
54458;SDS011;40368;49.350;8.152;2023-12-14T04:38:58;42;;;74;;
54458;SDS011;40368;49.350;8.152;2023-12-14T04:39:58;37;;;78;;
54458;SDS011;40368;49.350;8.152;2023-12-14T04:40:58;49;;;79;;
54458;SDS011;40368;49.350;8.152;2023-12-14T04:41:59;50;;;86;;
54458;SDS011;40368;49.350;8.152;2023-12-14T04:42:58;44;;;72;;
54458;SDS011;40368;49.350;8.152;2023-12-14T04:43:58;41;;;82;;
54458;SDS011;40368;49.350;8.152;2023-12-14T04:44:58;58;;;96;;
54458;SDS011;40368;49.350;8.152;2023-12-14T04:45:58;40;;;81;;
54458;SDS011;40368;49.350;8.152;2023-12-14T04:46:59;56;;;97;;
54458;SDS011;40368;49.350;8.152;2023-12-14T04:47:58;48;;;112;;
54458;SDS011;40368;49.350;8.152;2023-12-14T04:48:58;54;;;108;;
54458;SDS011;40368;49.350;8.152;2023-12-14T04:49:59;48;;;109;;
54458;SDS011;40368;49.350;8.152;2023-12-14T04:50:58;63;;;110;;
54458;SDS011;40368;49.350;8.152;2023-12-14T04:51:58;44;;;119;;
54458;SDS011;40368;49.350;8.152;2023-12-14T04:52:58;52;;;104;;
54458;SDS011;40368;49.350;8.152;2023-12-14T04:53:59;49;;;113;;
54458;SDS011;40368;49.350;8.152;2023-12-14T04:54:59;50;;;85;;
54458;SDS011;40368;49.350;8.152;2023-12-14T04:55:58;44;;;86;;
54458;SDS011;40368;49.350;8.152;2023-12-14T04:56:59;52;;;91;;
54458;SDS011;40368;49.350;8.152;2023-12-14T04:57:58;52;;;98;;
54458;SDS011;40368;49.350;8.152;2023-12-14T04:58:58;59;;;104;;
54458;SDS011;40368;49.350;8.152;2023-12-14T04:59:58;50;;;124;;
54458;SDS011;40368;49.350;8.152;2023-12-14T05:00:58;45;;;83;;
54458;SDS011;40368;49.350;8.152;2023-12-14T05:01:58;63;;;100;;
54458;SDS011;40368;49.350;8.152;2023-12-14T05:02:58;44;;;81;;
54458;SDS011;40368;49.350;8.152;2023-12-14T05:03:58;48;;;83;;
54458;SDS011;40368;49.350;8.152;2023-12-14T05:04:58;50;;;85;;
54458;SDS011;40368;49.350;8.152;2023-12-14T05:05:58;51;;;99;;
54458;SDS011;40368;49.350;8.152;2023-12-14T05:06:58;38;;;87;;
54458;SDS011;40368;49.350;8.152;2023-12-14T05:07:58;44;;;91;;
54458;SDS011;40368;49.350;8.152;2023-12-14T05:08:58;48;;;94;;
54458;SDS011;40368;49.350;8.152;2023-12-14T05:10:00;59;;;98;;
54458;SDS011;40368;49.350;8.152;2023-12-14T05:10:58;47;;;88;;
54458;SDS011;40368;49.350;8.152;2023-12-14T05:11:58;61;;;104;;
54458;SDS011;40368;49.350;8.152;2023-12-14T05:12:59;56;;;93;;
54458;SDS011;40368;49.350;8.152;2023-12-14T05:13:58;51;;;113;;
54458;SDS011;40368;49.350;8.152;2023-12-14T05:14:58;55;;;120;;
54458;SDS011;40368;49.350;8.152;2023-12-14T05:15:59;53;;;98;;
54458;SDS011;40368;49.350;8.152;2023-12-14T05:16:58;54;;;111;;
54458;SDS011;40368;49.350;8.152;2023-12-14T05:17:58;57;;;110;;
54458;SDS011;40368;49.350;8.152;2023-12-14T05:18:58;54;;;98;;
54458;SDS011;40368;49.350;8.152;2023-12-14T05:19:58;47;;;83;;
54458;SDS011;40368;49.350;8.152;2023-12-14T05:20:58;50;;;96;;
54458;SDS011;40368;49.350;8.152;2023-12-14T05:21:58;64;;;108;;
54458;SDS011;40368;49.350;8.152;2023-12-14T05:22:58;49;;;81;;
54458;SDS011;40368;49.350;8.152;2023-12-14T05:23:58;50;;;87;;
54458;SDS011;40368;49.350;8.152;2023-12-14T05:24:58;54;;;95;;
54458;SDS011;40368;49.350;8.152;2023-12-14T05:25:58;52;;;106;;
54458;SDS011;40368;49.350;8.152;2023-12-14T05:26:58;53;;;100;;
54458;SDS011;40368;49.350;8.152;2023-12-14T05:27:58;52;;;92;;
54458;SDS011;40368;49.350;8.152;2023-12-14T05:28:58;50;;;106;;
54458;SDS011;40368;49.350;8.152;2023-12-14T05:29:58;49;;;88;;
54458;SDS011;40368;49.350;8.152;2023-12-14T05:30:59;59;;;122;;
54458;SDS011;40368;49.350;8.152;2023-12-14T05:31:58;45;;;91;;
54458;SDS011;40368;49.350;8.152;2023-12-14T05:32:58;50;;;99;;
54458;SDS011;40368;49.350;8.152;2023-12-14T05:33:58;46;;;102;;
54458;SDS011;40368;49.350;8.152;2023-12-14T05:34:58;43;;;93;;
54458;SDS011;40368;49.350;8.152;2023-12-14T05:35:58;53;;;107;;
54458;SDS011;40368;49.350;8.152;2023-12-14T05:36:58;52;;;106;;
54458;SDS011;40368;49.350;8.152;2023-12-14T05:37:58;54;;;94;;
54458;SDS011;40368;49.350;8.152;2023-12-14T05:38:58;51;;;115;;
54458;SDS011;40368;49.350;8.152;2023-12-14T05:39:59;63;;;100;;
54458;SDS011;40368;49.350;8.152;2023-12-14T05:40:58;48;;;84;;
54458;SDS011;40368;49.350;8.152;2023-12-14T05:41:58;55;;;128;;
54458;SDS011;40368;49.350;8.152;2023-12-14T05:42:58;57;;;93;;
54458;SDS011;40368;49.350;8.152;2023-12-14T05:43:58;56;;;118;;
54458;SDS011;40368;49.350;8.152;2023-12-14T05:44:59;62;;;118;;
54458;SDS011;40368;49.350;8.152;2023-12-14T05:45:58;55;;;93;;
54458;SDS011;40368;49.350;8.152;2023-12-14T05:46:58;44;;;88;;
54458;SDS011;40368;49.350;8.152;2023-12-14T05:47:59;56;;;119;;
54458;SDS011;40368;49.350;8.152;2023-12-14T05:48:58;55;;;116;;
54458;SDS011;40368;49.350;8.152;2023-12-14T05:49:58;57;;;111;;
54458;SDS011;40368;49.350;8.152;2023-12-14T05:50:59;61;;;119;;
54458;SDS011;40368;49.350;8.152;2023-12-14T05:51:59;61;;;113;;
54458;SDS011;40368;49.350;8.152;2023-12-14T05:52:58;53;;;105;;
54458;SDS011;40368;49.350;8.152;2023-12-14T05:53:59;55;;;109;;
54458;SDS011;40368;49.350;8.152;2023-12-14T05:54:58;54;;;97;;
54458;SDS011;40368;49.350;8.152;2023-12-14T05:55:58;49;;;100;;
54458;SDS011;40368;49.350;8.152;2023-12-14T05:56:58;65;;;126;;
54458;SDS011;40368;49.350;8.152;2023-12-14T05:57:58;43;;;83;;
54458;SDS011;40368;49.350;8.152;2023-12-14T05:58:59;64;;;112;;
54458;SDS011;40368;49.350;8.152;2023-12-14T05:59:58;51;;;113;;
54458;SDS011;40368;49.350;8.152;2023-12-14T06:00:58;49;;;97;;
54458;SDS011;40368;49.350;8.152;2023-12-14T06:01:59;46;;;75;;
54458;SDS011;40368;49.350;8.152;2023-12-14T06:02:58;52;;;99;;
54458;SDS011;40368;49.350;8.152;2023-12-14T06:03:59;49;;;97;;
54458;SDS011;40368;49.350;8.152;2023-12-14T06:04:58;53;;;113;;
54458;SDS011;40368;49.350;8.152;2023-12-14T06:05:58;52;;;111;;
54458;SDS011;40368;49.350;8.152;2023-12-14T06:06:59;54;;;97;;
54458;SDS011;40368;49.350;8.152;2023-12-14T06:07:58;60;;;137;;
54458;SDS011;40368;49.350;8.152;2023-12-14T06:08:58;53;;;117;;
54458;SDS011;40368;49.350;8.152;2023-12-14T06:09:59;58;;;113;;
54458;SDS011;40368;49.350;8.152;2023-12-14T06:10:58;53;;;112;;
54458;SDS011;40368;49.350;8.152;2023-12-14T06:11:59;52;;;93;;
54458;SDS011;40368;49.350;8.152;2023-12-14T06:12:58;47;;;97;;
54458;SDS011;40368;49.350;8.152;2023-12-14T06:13:58;54;;;88;;
54458;SDS011;40368;49.350;8.152;2023-12-14T06:14:58;54;;;97;;
54458;SDS011;40368;49.350;8.152;2023-12-14T06:15:59;54;;;100;;
54458;SDS011;40368;49.350;8.152;2023-12-14T06:16:58;53;;;107;;
54458;SDS011;40368;49.350;8.152;2023-12-14T06:17:58;47;;;79;;
54458;SDS011;40368;49.350;8.152;2023-12-14T06:18:58;51;;;88;;
54458;SDS011;40368;49.350;8.152;2023-12-14T06:19:58;57;;;104;;
54458;SDS011;40368;49.350;8.152;2023-12-14T06:20:58;52;;;84;;
54458;SDS011;40368;49.350;8.152;2023-12-14T06:21:58;47;;;87;;
54458;SDS011;40368;49.350;8.152;2023-12-14T06:22:58;68;;;122;;
54458;SDS011;40368;49.350;8.152;2023-12-14T06:23:58;45;;;83;;
54458;SDS011;40368;49.350;8.152;2023-12-14T06:24:58;61;;;115;;
54458;SDS011;40368;49.350;8.152;2023-12-14T06:25:59;51;;;91;;